createdAt,value
2019-02-09T00:00:57.000Z,10.40
2019-02-09T00:01:38.948Z,10.07
2019-02-09T00:02:17.644Z,10.80
2019-02-09T00:02:57.095Z,11.07
2019-02-09T00:03:35.742Z,9.80
2019-02-09T00:04:15.464Z,10.45
2019-02-09T00:04:54.108Z,10.30
2019-02-09T00:05:32.872Z,9.90
2019-02-09T00:06:11.587Z,10.53
2019-02-09T00:06:50.866Z,10.97
2019-02-09T00:07:29.772Z,9.77
2019-02-09T00:08:09.142Z,9.93
2019-02-09T00:08:48.224Z,10.53
2019-02-09T00:09:26.962Z,10.03
2019-02-09T00:10:05.879Z,10.80
2019-02-09T00:10:45.389Z,10.00
2019-02-09T00:11:24.106Z,10.93
2019-02-09T00:12:03.811Z,10.00
2019-02-09T00:12:42.470Z,11.33
2019-02-09T00:13:21.167Z,10.50
2019-02-09T00:14:00.487Z,10.47
2019-02-09T00:14:39.663Z,10.57
2019-02-09T00:15:19.396Z,10.07
2019-02-09T00:15:58.977Z,10.37
2019-02-09T00:16:39.390Z,10.10
2019-02-09T00:17:18.432Z,11.00
2019-02-09T00:17:57.854Z,9.93
2019-02-09T00:18:37.445Z,10.50
2019-02-09T00:19:17.748Z,10.27
2019-02-09T00:19:56.797Z,11.63
2019-02-09T00:20:35.489Z,10.90
2019-02-09T00:21:14.165Z,11.00
2019-02-09T00:21:52.888Z,10.57
2019-02-09T00:22:32.219Z,10.50
2019-02-09T00:23:11.253Z,10.30
2019-02-09T00:23:49.992Z,11.10
2019-02-09T00:24:29.244Z,10.57
2019-02-09T00:25:08.577Z,10.73
2019-02-09T00:25:48.134Z,11.67
2019-02-09T00:26:27.390Z,10.90
2019-02-09T00:27:07.202Z,10.00
2019-02-09T00:27:47.561Z,10.63
2019-02-09T00:28:26.860Z,11.20
2019-02-09T00:29:05.509Z,11.50
2019-02-09T00:29:46.364Z,10.40
2019-02-09T00:30:24.458Z,11.37
2019-02-09T00:31:03.139Z,11.77
2019-02-09T00:31:41.926Z,10.83
2019-02-09T00:32:20.575Z,11.20
2019-02-09T00:32:59.889Z,11.10
2019-02-09T00:33:39.222Z,11.10
2019-02-09T00:34:18.478Z,11.90
2019-02-09T00:34:57.781Z,11.43
2019-02-09T00:35:37.221Z,11.10
2019-02-09T00:36:16.400Z,11.70
2019-02-09T00:36:56.219Z,11.30
2019-02-09T00:37:34.915Z,10.80
2019-02-09T00:38:13.626Z,11.90
2019-02-09T00:38:53.337Z,11.03
2019-02-09T00:39:32.177Z,11.07
2019-02-09T00:40:11.571Z,10.87
2019-02-09T00:40:50.898Z,11.53
2019-02-09T00:41:30.381Z,11.57
2019-02-09T00:42:09.849Z,10.50
2019-02-09T00:43:07.196Z,12.00
2019-02-09T00:43:46.666Z,11.30
2019-02-09T00:44:25.613Z,10.93
2019-02-09T00:45:04.885Z,11.63
2019-02-09T00:45:43.755Z,11.17
2019-02-09T00:46:22.613Z,10.50
2019-02-09T00:47:01.492Z,11.87
2019-02-09T00:47:40.792Z,10.27
2019-02-09T00:48:20.140Z,11.47
2019-02-09T00:48:59.382Z,11.43
2019-02-09T00:49:38.356Z,10.43
2019-02-09T00:50:17.177Z,10.53
2019-02-09T00:50:55.881Z,12.10
2019-02-09T00:51:34.984Z,12.60
2019-02-09T00:52:14.626Z,11.13
2019-02-09T00:52:53.318Z,12.10
2019-02-09T00:53:32.395Z,11.10
2019-02-09T00:54:11.476Z,11.87
2019-02-09T00:54:51.303Z,11.67
2019-02-09T00:55:30.824Z,11.33
2019-02-09T00:56:10.150Z,12.33
2019-02-09T00:56:50.759Z,10.87
2019-02-09T00:57:29.667Z,11.57
2019-02-09T00:58:08.503Z,12.97
2019-02-09T00:58:47.237Z,11.53
2019-02-09T00:59:25.910Z,11.90
2019-02-09T01:00:05.151Z,12.30
2019-02-09T01:00:44.003Z,11.57
2019-02-09T01:01:22.813Z,12.33
2019-02-09T01:02:02.122Z,11.97
2019-02-09T01:02:41.204Z,11.37
2019-02-09T01:03:20.648Z,12.83
2019-02-09T01:04:00.067Z,12.90
2019-02-09T01:04:38.698Z,12.13
2019-02-09T01:05:17.989Z,12.50
2019-02-09T01:05:56.742Z,11.93
2019-02-09T01:06:35.485Z,12.40
2019-02-09T01:07:14.286Z,12.30
2019-02-09T01:07:53.067Z,13.00
2019-02-09T01:08:32.471Z,12.67
2019-02-09T01:09:15.556Z,13.20
2019-02-09T01:09:54.265Z,12.57
2019-02-09T01:10:34.162Z,12.50
2019-02-09T01:11:13.452Z,12.20
2019-02-09T01:11:53.451Z,12.80
2019-02-09T01:12:32.394Z,13.67
2019-02-09T01:13:11.697Z,12.43
2019-02-09T01:13:50.769Z,13.37
2019-02-09T01:14:30.195Z,12.57
2019-02-09T01:15:10.432Z,13.50
2019-02-09T01:15:49.189Z,13.90
2019-02-09T01:16:27.998Z,13.23
2019-02-09T01:17:07.223Z,14.53
2019-02-09T01:17:46.786Z,13.50
2019-02-09T01:18:25.673Z,13.33
2019-02-09T01:19:04.768Z,13.67
2019-02-09T01:19:43.866Z,13.20
2019-02-09T01:20:24.606Z,13.53
2019-02-09T01:21:04.222Z,12.67
2019-02-09T01:21:43.776Z,13.73
2019-02-09T01:22:22.778Z,14.13
2019-02-09T01:23:01.807Z,13.47
2019-02-09T01:23:40.694Z,14.47
2019-02-09T01:24:20.243Z,14.50
2019-02-09T01:24:58.977Z,13.70
2019-02-09T01:25:37.624Z,13.70
2019-02-09T01:26:16.821Z,14.13
2019-02-09T01:26:55.874Z,15.33
2019-02-09T01:27:35.045Z,14.13
2019-02-09T01:28:15.036Z,15.10
2019-02-09T01:28:55.089Z,15.20
2019-02-09T01:29:34.377Z,14.47
2019-02-09T01:30:16.210Z,15.20
2019-02-09T01:30:55.096Z,15.43
2019-02-09T01:31:34.229Z,14.03
2019-02-09T01:32:13.411Z,15.30
2019-02-09T01:32:52.171Z,14.43
2019-02-09T01:33:30.895Z,14.70
2019-02-09T01:34:10.881Z,14.13
2019-02-09T01:34:50.087Z,14.07
2019-02-09T01:35:28.801Z,16.37
2019-02-09T01:36:07.682Z,15.50
2019-02-09T01:36:46.424Z,15.07
2019-02-09T01:37:26.757Z,16.23
2019-02-09T01:38:05.828Z,16.13
2019-02-09T01:38:44.881Z,15.20
2019-02-09T01:39:24.215Z,15.63
2019-02-09T01:40:03.274Z,14.33
2019-02-09T01:40:42.541Z,15.23
2019-02-09T01:41:21.281Z,14.03
2019-02-09T01:41:59.962Z,15.07
2019-02-09T01:42:38.621Z,16.20
2019-02-09T01:43:17.329Z,15.73
2019-02-09T01:43:56.367Z,15.30
2019-02-09T01:44:35.494Z,15.43
2019-02-09T01:45:17.193Z,15.47
2019-02-09T01:45:56.449Z,14.57
2019-02-09T01:46:35.700Z,14.63
2019-02-09T01:47:15.144Z,14.73
2019-02-09T01:47:54.824Z,15.50
2019-02-09T01:48:34.099Z,15.57
2019-02-09T01:49:13.271Z,14.90
2019-02-09T01:49:53.129Z,14.90
2019-02-09T01:50:33.045Z,15.70
2019-02-09T01:51:12.545Z,16.00
2019-02-09T01:51:51.289Z,14.73
2019-02-09T01:52:31.051Z,16.20
2019-02-09T01:53:10.085Z,15.03
2019-02-09T01:53:48.765Z,15.30
2019-02-09T01:54:27.564Z,14.60
2019-02-09T01:55:06.826Z,15.60
2019-02-09T01:55:45.561Z,15.53
2019-02-09T01:56:24.893Z,15.17
2019-02-09T01:57:04.465Z,16.10
2019-02-09T01:57:44.022Z,15.60
2019-02-09T01:58:24.659Z,14.93
2019-02-09T01:59:03.344Z,15.40
2019-02-09T01:59:42.107Z,15.87
2019-02-09T02:00:25.426Z,15.13
2019-02-09T02:01:04.177Z,15.40
2019-02-09T02:01:43.459Z,15.67
2019-02-09T02:02:22.131Z,15.20
2019-02-09T02:03:01.402Z,15.63
2019-02-09T02:03:40.162Z,14.97
2019-02-09T02:04:19.362Z,15.37
2019-02-09T02:04:58.110Z,15.30
2019-02-09T02:05:37.181Z,14.70
2019-02-09T02:06:16.013Z,15.43
2019-02-09T02:06:55.262Z,14.97
2019-02-09T02:07:34.679Z,15.67
2019-02-09T02:08:14.186Z,15.93
2019-02-09T02:08:52.960Z,15.53
2019-02-09T02:09:31.668Z,15.87
2019-02-09T02:10:12.760Z,16.40
2019-02-09T02:10:51.626Z,16.47
2019-02-09T02:11:30.373Z,15.80
2019-02-09T02:12:09.625Z,15.73
2019-02-09T02:12:48.581Z,15.33
2019-02-09T02:13:27.949Z,15.27
2019-02-09T02:14:07.258Z,15.90
2019-02-09T02:14:46.472Z,14.80
2019-02-09T02:15:25.692Z,14.70
2019-02-09T02:16:05.062Z,15.80
2019-02-09T02:16:43.755Z,15.90
2019-02-09T02:17:22.477Z,14.80
2019-02-09T02:18:01.207Z,14.90
2019-02-09T02:18:39.910Z,14.63
2019-02-09T02:19:18.928Z,14.10
2019-02-09T02:19:58.432Z,14.90
2019-02-09T02:20:38.421Z,14.90
2019-02-09T02:21:18.104Z,15.87
2019-02-09T02:21:57.676Z,15.00
2019-02-09T02:22:36.943Z,14.33
2019-02-09T02:23:16.429Z,14.47
2019-02-09T02:23:55.615Z,15.00
2019-02-09T02:24:34.941Z,15.43
2019-02-09T02:25:13.661Z,13.67
2019-02-09T02:25:52.417Z,15.07
2019-02-09T02:26:31.501Z,15.17
2019-02-09T02:27:10.281Z,14.47
2019-02-09T02:27:49.370Z,14.13
2019-02-09T02:28:28.548Z,15.03
2019-02-09T02:29:08.419Z,14.03
2019-02-09T02:29:47.944Z,13.53
2019-02-09T02:30:28.740Z,14.10
2019-02-09T02:31:07.748Z,13.93
2019-02-09T02:31:47.094Z,15.03
2019-02-09T02:32:26.358Z,13.87
2019-02-09T02:33:05.764Z,13.83
2019-02-09T02:33:44.392Z,15.20
2019-02-09T02:34:23.126Z,14.40
2019-02-09T02:35:01.910Z,15.53
2019-02-09T02:35:40.918Z,14.20
2019-02-09T02:36:20.250Z,14.63
2019-02-09T02:36:59.280Z,14.63
2019-02-09T02:37:38.466Z,14.37
2019-02-09T02:38:17.757Z,14.03
2019-02-09T02:38:57.273Z,14.10
2019-02-09T02:39:36.663Z,14.80
2019-02-09T02:40:15.665Z,14.20
2019-02-09T02:40:54.931Z,14.37
2019-02-09T02:41:34.126Z,13.80
2019-02-09T02:42:13.130Z,14.70
2019-02-09T02:42:51.925Z,14.50
2019-02-09T02:43:30.631Z,14.13
2019-02-09T02:44:09.858Z,13.77
2019-02-09T02:44:49.171Z,14.67
2019-02-09T02:45:28.595Z,14.13
2019-02-09T02:46:07.817Z,13.83
2019-02-09T02:46:47.113Z,13.67
2019-02-09T02:47:26.486Z,14.33
2019-02-09T02:48:05.927Z,14.40
2019-02-09T02:48:45.268Z,14.43
2019-02-09T02:49:23.920Z,14.00
2019-02-09T02:50:02.676Z,14.03
2019-02-09T02:50:41.956Z,14.30
2019-02-09T02:51:20.733Z,14.20
2019-02-09T02:51:59.407Z,13.20
2019-02-09T02:52:38.828Z,14.83
2019-02-09T02:53:17.997Z,14.50
2019-02-09T02:53:57.433Z,15.50
2019-02-09T02:54:37.406Z,14.07
2019-02-09T02:55:21.021Z,14.40
2019-02-09T02:56:00.353Z,14.40
2019-02-09T02:56:41.009Z,14.77
2019-02-09T02:57:20.324Z,14.30
2019-02-09T02:57:59.632Z,14.00
2019-02-09T02:58:38.842Z,13.73
2019-02-09T02:59:18.053Z,13.87
2019-02-09T02:59:57.648Z,14.30
2019-02-09T03:00:36.281Z,13.90
2019-02-09T03:01:15.477Z,14.40
2019-02-09T03:01:54.726Z,13.83
2019-02-09T03:02:34.320Z,13.40
2019-02-09T03:03:15.466Z,13.10
2019-02-09T03:03:54.189Z,13.63
2019-02-09T03:04:33.120Z,14.10
2019-02-09T03:05:13.754Z,13.07
2019-02-09T03:05:52.741Z,13.90
2019-02-09T03:06:31.780Z,13.10
2019-02-09T03:07:11.446Z,13.23
2019-02-09T03:07:50.221Z,12.57
2019-02-09T03:08:29.571Z,12.50
2019-02-09T03:09:12.268Z,13.80
2019-02-09T03:09:50.509Z,13.50
2019-02-09T03:10:29.829Z,13.43
2019-02-09T03:11:08.510Z,13.03
2019-02-09T03:11:47.306Z,13.40
2019-02-09T03:12:25.990Z,14.07
2019-02-09T03:13:04.645Z,13.77
2019-02-09T03:13:43.707Z,12.60
2019-02-09T03:14:22.998Z,14.13
2019-02-09T03:15:01.743Z,13.77
2019-02-09T03:15:41.470Z,13.83
2019-02-09T03:16:21.003Z,13.60
2019-02-09T03:17:00.049Z,12.57
2019-02-09T03:17:39.402Z,13.80
2019-02-09T03:18:18.031Z,12.90
2019-02-09T03:18:57.427Z,12.80
2019-02-09T03:19:36.544Z,13.87
2019-02-09T03:20:16.948Z,13.70
2019-02-09T03:20:55.973Z,14.30
2019-02-09T03:21:34.725Z,13.23
2019-02-09T03:22:13.623Z,13.70
2019-02-09T03:22:53.061Z,13.60
2019-02-09T03:23:32.914Z,13.03
2019-02-09T03:24:12.438Z,13.70
2019-02-09T03:24:51.827Z,13.47
2019-02-09T03:25:32.814Z,12.50
2019-02-09T03:26:12.187Z,14.20
2019-02-09T03:26:50.846Z,14.10
2019-02-09T03:27:29.546Z,12.57
2019-02-09T03:28:08.295Z,12.57
2019-02-09T03:28:46.988Z,13.17
2019-02-09T03:29:25.666Z,13.13
2019-02-09T03:30:04.660Z,13.37
2019-02-09T03:30:47.445Z,13.70
2019-02-09T03:31:24.145Z,13.50
2019-02-09T03:32:03.442Z,13.80
2019-02-09T03:32:42.641Z,12.70
2019-02-09T03:33:22.259Z,13.93
2019-02-09T03:34:02.190Z,13.23
2019-02-09T03:34:41.812Z,14.03
2019-02-09T03:35:21.205Z,12.93
2019-02-09T03:35:59.995Z,12.87
2019-02-09T03:36:39.460Z,13.50
2019-02-09T03:37:18.372Z,13.53
2019-02-09T03:37:57.968Z,13.50
2019-02-09T03:38:36.710Z,13.43
2019-02-09T03:39:15.715Z,13.97
2019-02-09T03:39:54.479Z,13.80
2019-02-09T03:40:34.194Z,13.90
2019-02-09T03:41:13.443Z,13.33
2019-02-09T03:41:52.693Z,13.67
2019-02-09T03:42:31.750Z,13.60
2019-02-09T03:43:11.285Z,13.87
2019-02-09T03:43:49.980Z,13.27
2019-02-09T03:44:28.979Z,13.13
2019-02-09T03:45:09.061Z,13.23
2019-02-09T03:45:48.149Z,13.60
2019-02-09T03:46:26.875Z,13.30
2019-02-09T03:47:05.965Z,13.10
2019-02-09T03:47:45.088Z,12.20
2019-02-09T03:48:24.629Z,12.57
2019-02-09T03:49:03.886Z,12.93
2019-02-09T03:49:43.150Z,13.17
2019-02-09T03:50:22.510Z,14.27
2019-02-09T03:51:02.520Z,12.57
2019-02-09T03:51:41.741Z,13.17
2019-02-09T03:52:21.022Z,13.00
2019-02-09T03:52:59.818Z,13.27
2019-02-09T03:53:39.065Z,12.37
2019-02-09T03:54:17.747Z,12.80
2019-02-09T03:54:56.492Z,13.00
2019-02-09T03:55:35.668Z,12.87
2019-02-09T03:56:15.046Z,12.70
2019-02-09T03:56:54.780Z,14.00
2019-02-09T03:57:33.652Z,13.70
2019-02-09T03:58:12.892Z,13.60
2019-02-09T03:58:52.225Z,14.50
2019-02-09T03:59:31.526Z,13.20
2019-02-09T04:00:17.310Z,12.80
2019-02-09T04:00:56.194Z,13.27
2019-02-09T04:01:35.670Z,13.23
2019-02-09T04:02:15.217Z,12.70
2019-02-09T04:02:53.966Z,13.80
2019-02-09T04:03:32.707Z,14.50
2019-02-09T04:04:12.027Z,13.20
2019-02-09T04:04:50.737Z,14.07
2019-02-09T04:05:30.017Z,13.03
2019-02-09T04:06:09.053Z,14.70
2019-02-09T04:06:48.362Z,14.50
2019-02-09T04:07:27.330Z,15.10
2019-02-09T04:08:06.407Z,14.23
2019-02-09T04:08:45.671Z,14.90
2019-02-09T04:09:25.031Z,14.63
2019-02-09T04:10:04.536Z,14.13
2019-02-09T04:10:43.324Z,13.97
2019-02-09T04:11:22.660Z,13.63
2019-02-09T04:12:01.671Z,13.63
2019-02-09T04:12:41.062Z,15.47
2019-02-09T04:13:19.718Z,14.23
2019-02-09T04:13:58.432Z,13.60
2019-02-09T04:14:37.600Z,14.50
2019-02-09T04:15:17.386Z,14.17
2019-02-09T04:15:56.686Z,13.03
2019-02-09T04:16:36.329Z,13.53
2019-02-09T04:17:15.268Z,14.07
2019-02-09T04:17:55.160Z,14.00
2019-02-09T04:18:34.619Z,13.60
2019-02-09T04:19:13.368Z,13.20
2019-02-09T04:19:52.084Z,13.33
2019-02-09T04:20:30.831Z,14.57
2019-02-09T04:21:10.116Z,13.57
2019-02-09T04:21:49.145Z,13.67
2019-02-09T04:22:27.980Z,13.20
2019-02-09T04:23:06.823Z,13.47
2019-02-09T04:23:45.644Z,13.93
2019-02-09T04:24:25.000Z,13.27
2019-02-09T04:25:04.501Z,13.90
2019-02-09T04:25:43.671Z,12.77
2019-02-09T04:26:23.253Z,14.10
2019-02-09T04:27:02.746Z,13.67
2019-02-09T04:27:41.490Z,13.90
2019-02-09T04:28:20.124Z,13.73
2019-02-09T04:28:59.340Z,14.30
2019-02-09T04:29:38.261Z,14.00
2019-02-09T04:30:19.833Z,14.13
2019-02-09T04:31:05.980Z,14.60
2019-02-09T04:31:39.264Z,13.90
2019-02-09T04:32:18.401Z,13.50
2019-02-09T04:32:57.278Z,14.50
2019-02-09T04:33:36.733Z,14.43
2019-02-09T04:34:15.987Z,13.10
2019-02-09T04:34:55.406Z,14.57
2019-02-09T04:35:34.777Z,14.53
2019-02-09T04:36:13.372Z,13.33
2019-02-09T04:36:52.020Z,13.90
2019-02-09T04:37:31.196Z,14.90
2019-02-09T04:38:10.144Z,13.43
2019-02-09T04:38:48.993Z,13.00
2019-02-09T04:39:28.017Z,13.90
2019-02-09T04:40:08.330Z,14.30
2019-02-09T04:40:47.813Z,12.80
2019-02-09T04:41:27.126Z,14.70
2019-02-09T04:42:06.317Z,14.13
2019-02-09T04:42:45.032Z,13.93
2019-02-09T04:43:23.969Z,14.13
2019-02-09T04:44:03.316Z,14.70
2019-02-09T04:44:41.995Z,13.00
2019-02-09T04:45:20.918Z,14.13
2019-02-09T04:45:59.560Z,14.17
2019-02-09T04:46:38.259Z,14.47
2019-02-09T04:47:17.559Z,14.70
2019-02-09T04:47:58.207Z,14.53
2019-02-09T04:48:37.627Z,13.80
2019-02-09T04:49:17.056Z,15.10
2019-02-09T04:49:56.913Z,13.30
2019-02-09T04:50:36.199Z,14.40
2019-02-09T04:51:14.868Z,14.90
2019-02-09T04:51:54.243Z,14.83
2019-02-09T04:52:34.090Z,14.17
2019-02-09T04:53:12.883Z,14.40
2019-02-09T04:53:52.300Z,13.60
2019-02-09T04:54:30.967Z,14.10
2019-02-09T04:55:11.048Z,14.33
2019-02-09T04:55:49.919Z,13.80
2019-02-09T04:56:28.968Z,13.30
2019-02-09T04:57:07.655Z,14.63
2019-02-09T04:57:47.027Z,15.40
2019-02-09T04:58:26.509Z,14.67
2019-02-09T04:59:07.015Z,13.80
2019-02-09T04:59:45.817Z,14.90
2019-02-09T05:00:29.363Z,13.73
2019-02-09T05:01:14.149Z,14.40
2019-02-09T05:01:50.241Z,13.90
2019-02-09T05:02:29.495Z,13.90
2019-02-09T05:03:08.850Z,14.33
2019-02-09T05:03:47.567Z,13.70
2019-02-09T05:04:26.288Z,13.40
2019-02-09T05:05:04.948Z,13.83
2019-02-09T05:06:02.088Z,13.20
2019-02-09T05:06:41.232Z,12.70
2019-02-09T05:07:19.927Z,13.40
2019-02-09T05:07:58.579Z,14.53
2019-02-09T05:08:37.348Z,13.47
2019-02-09T05:09:16.182Z,13.03
2019-02-09T05:09:56.003Z,14.40
2019-02-09T05:10:34.724Z,13.93
2019-02-09T05:11:13.512Z,14.03
2019-02-09T05:11:52.346Z,13.00
2019-02-09T05:12:31.257Z,14.17
2019-02-09T05:13:10.685Z,13.33
2019-02-09T05:13:49.777Z,12.63
2019-02-09T05:14:29.034Z,14.10
2019-02-09T05:15:08.385Z,13.30
2019-02-09T05:15:47.132Z,13.37
2019-02-09T05:16:25.794Z,13.83
2019-02-09T05:17:04.483Z,12.60
2019-02-09T05:17:43.254Z,13.50
2019-02-09T05:18:22.492Z,13.07
2019-02-09T05:19:01.624Z,13.30
2019-02-09T05:19:40.979Z,12.80
2019-02-09T05:20:24.856Z,13.27
2019-02-09T05:21:03.908Z,13.60
2019-02-09T05:21:42.904Z,12.60
2019-02-09T05:22:21.979Z,13.30
2019-02-09T05:23:01.240Z,12.60
2019-02-09T05:23:40.628Z,12.50
2019-02-09T05:24:19.646Z,13.00
2019-02-09T05:24:58.344Z,12.90
2019-02-09T05:25:37.026Z,13.10
2019-02-09T05:26:15.729Z,12.53
2019-02-09T05:26:55.004Z,12.90
2019-02-09T05:27:33.887Z,12.67
2019-02-09T05:28:12.705Z,12.30
2019-02-09T05:28:51.695Z,13.50
2019-02-09T05:29:31.122Z,12.53
2019-02-09T05:30:12.643Z,12.67
2019-02-09T05:30:51.786Z,12.83
2019-02-09T05:31:31.502Z,12.50
2019-02-09T05:32:10.247Z,13.10
2019-02-09T05:32:49.484Z,12.20
2019-02-09T05:33:28.663Z,11.67
2019-02-09T05:34:08.055Z,12.37
2019-02-09T05:34:46.751Z,12.83
2019-02-09T05:35:25.821Z,11.60
2019-02-09T05:36:04.554Z,12.33
2019-02-09T05:36:43.213Z,13.10
2019-02-09T05:37:22.722Z,12.13
2019-02-09T05:38:01.892Z,12.60
2019-02-09T05:38:41.170Z,11.40
2019-02-09T05:39:20.587Z,11.77
2019-02-09T05:39:59.975Z,11.97
2019-02-09T05:40:38.723Z,12.33
2019-02-09T05:41:18.766Z,13.07
2019-02-09T05:41:57.450Z,12.60
2019-02-09T05:42:36.575Z,11.40
2019-02-09T05:43:15.240Z,11.57
2019-02-09T05:43:54.518Z,12.23
2019-02-09T05:44:33.896Z,12.40
2019-02-09T05:45:17.677Z,11.83
2019-02-09T05:45:56.986Z,12.47
2019-02-09T05:46:35.750Z,11.60
2019-02-09T05:47:14.479Z,12.67
2019-02-09T05:47:53.715Z,11.87
2019-02-09T05:48:32.847Z,12.07
2019-02-09T05:49:12.088Z,12.60
2019-02-09T05:49:52.040Z,12.00
2019-02-09T05:50:30.741Z,12.07
2019-02-09T05:51:09.501Z,11.47
2019-02-09T05:51:48.221Z,12.00
2019-02-09T05:52:26.931Z,12.17
2019-02-09T05:53:05.836Z,12.43
2019-02-09T05:53:45.030Z,12.07
2019-02-09T05:54:25.455Z,12.03
2019-02-09T05:55:04.534Z,11.70
2019-02-09T05:55:43.911Z,11.60
2019-02-09T05:56:23.363Z,12.27
2019-02-09T05:57:02.726Z,12.73
2019-02-09T05:57:42.170Z,11.70
2019-02-09T05:58:20.925Z,12.77
2019-02-09T05:58:59.663Z,11.50
2019-02-09T05:59:38.297Z,11.60
2019-02-09T06:00:21.522Z,11.77
2019-02-09T06:01:00.536Z,12.13
2019-02-09T06:01:39.393Z,12.20
2019-02-09T06:02:18.342Z,11.73
2019-02-09T06:02:57.144Z,12.60
2019-02-09T06:03:35.950Z,12.33
2019-02-09T06:04:15.440Z,11.80
2019-02-09T06:04:55.276Z,12.70
2019-02-09T06:05:34.896Z,11.90
2019-02-09T06:06:14.269Z,10.97
2019-02-09T06:06:53.723Z,12.80
2019-02-09T06:07:32.491Z,12.13
2019-02-09T06:08:11.175Z,11.87
2019-02-09T06:08:50.184Z,12.10
2019-02-09T06:09:28.957Z,12.33
2019-02-09T06:10:08.590Z,12.40
2019-02-09T06:10:47.305Z,11.57
2019-02-09T06:11:26.295Z,11.97
2019-02-09T06:12:05.056Z,11.80
2019-02-09T06:12:44.337Z,12.40
2019-02-09T06:13:23.567Z,11.77
2019-02-09T06:14:02.742Z,12.53
2019-02-09T06:14:42.101Z,12.70
2019-02-09T06:15:21.903Z,11.10
2019-02-09T06:16:00.553Z,11.80
2019-02-09T06:16:39.822Z,11.60
2019-02-09T06:17:18.566Z,11.33
2019-02-09T06:17:57.397Z,12.30
2019-02-09T06:18:36.406Z,12.50
2019-02-09T06:19:15.850Z,11.30
2019-02-09T06:19:55.243Z,11.93
2019-02-09T06:20:33.950Z,12.30
2019-02-09T06:21:13.447Z,12.03
2019-02-09T06:21:53.066Z,12.73
2019-02-09T06:22:31.815Z,11.80
2019-02-09T06:23:11.246Z,11.40
2019-02-09T06:23:49.919Z,12.73
2019-02-09T06:24:28.591Z,12.83
2019-02-09T06:25:07.328Z,12.70
2019-02-09T06:25:46.511Z,12.83
2019-02-09T06:26:25.932Z,11.30
2019-02-09T06:27:05.422Z,12.20
2019-02-09T06:27:44.583Z,11.77
2019-02-09T06:28:23.814Z,12.50
2019-02-09T06:29:03.305Z,11.67
2019-02-09T06:29:42.667Z,12.40
2019-02-09T06:30:27.144Z,12.33
2019-02-09T06:31:06.263Z,12.23
2019-02-09T06:31:45.617Z,12.33
2019-02-09T06:32:25.011Z,11.67
2019-02-09T06:33:05.068Z,11.77
2019-02-09T06:33:43.807Z,11.17
2019-02-09T06:34:22.583Z,11.30
2019-02-09T06:35:01.341Z,12.00
2019-02-09T06:35:40.912Z,12.53
2019-02-09T06:36:20.363Z,11.93
2019-02-09T06:36:59.106Z,11.30
2019-02-09T06:37:39.063Z,11.07
2019-02-09T06:38:19.216Z,12.13
2019-02-09T06:38:58.604Z,11.73
2019-02-09T06:39:37.499Z,11.80
2019-02-09T06:40:17.497Z,12.73
2019-02-09T06:40:57.385Z,11.30
2019-02-09T06:41:36.723Z,11.30
2019-02-09T06:42:15.502Z,11.43
2019-02-09T06:42:54.231Z,11.33
2019-02-09T06:43:32.913Z,11.70
2019-02-09T06:44:11.626Z,11.03
2019-02-09T06:44:50.729Z,12.23
2019-02-09T06:45:29.560Z,12.20
2019-02-09T06:46:08.801Z,10.93
2019-02-09T06:46:47.723Z,11.90
2019-02-09T06:47:26.810Z,11.10
2019-02-09T06:48:40.275Z,12.57
2019-02-09T06:49:19.050Z,11.37
2019-02-09T06:49:57.840Z,11.80
2019-02-09T06:50:37.033Z,10.37
2019-02-09T06:51:16.088Z,10.80
2019-02-09T06:51:54.755Z,11.63
2019-02-09T06:52:34.559Z,10.93
2019-02-09T06:53:14.987Z,12.10
2019-02-09T06:53:54.434Z,11.03
2019-02-09T06:54:33.510Z,10.60
2019-02-09T06:55:13.719Z,11.67
2019-02-09T06:55:53.501Z,11.40
2019-02-09T06:56:32.274Z,11.93
2019-02-09T06:57:11.594Z,11.90
2019-02-09T06:57:50.553Z,11.60
2019-02-09T06:58:29.493Z,12.00
2019-02-09T06:59:08.297Z,12.13
2019-02-09T06:59:47.012Z,11.60
2019-02-09T07:00:26.438Z,11.23
2019-02-09T07:01:05.281Z,12.40
2019-02-09T07:01:48.863Z,11.80
2019-02-09T07:02:24.928Z,10.93
2019-02-09T07:03:03.825Z,11.83
2019-02-09T07:03:42.471Z,10.80
2019-02-09T07:04:21.278Z,11.23
2019-02-09T07:05:01.162Z,10.87
2019-02-09T07:05:40.059Z,10.80
2019-02-09T07:06:18.834Z,12.20
2019-02-09T07:06:57.633Z,11.77
2019-02-09T07:07:36.698Z,11.40
2019-02-09T07:08:16.749Z,12.00
2019-02-09T07:08:55.570Z,11.10
2019-02-09T07:09:34.990Z,12.50
2019-02-09T07:10:19.380Z,11.80
2019-02-09T07:10:58.911Z,12.10
2019-02-09T07:11:37.967Z,11.63
2019-02-09T07:12:16.913Z,11.37
2019-02-09T07:12:56.265Z,10.83
2019-02-09T07:13:35.020Z,11.83
2019-02-09T07:14:14.105Z,11.33
2019-02-09T07:14:54.506Z,11.87
2019-02-09T07:15:34.055Z,11.80
2019-02-09T07:16:13.913Z,11.83
2019-02-09T07:16:52.524Z,12.67
2019-02-09T07:17:34.457Z,12.17
2019-02-09T07:18:13.141Z,12.30
2019-02-09T07:18:52.878Z,11.47
2019-02-09T07:19:31.641Z,11.40
2019-02-09T07:20:11.815Z,11.50
2019-02-09T07:20:50.838Z,11.60
2019-02-09T07:21:30.082Z,11.80
2019-02-09T07:22:09.488Z,12.50
2019-02-09T07:22:51.398Z,11.97
2019-02-09T07:23:31.191Z,11.47
2019-02-09T07:24:10.753Z,12.03
2019-02-09T07:24:50.461Z,11.33
2019-02-09T07:25:30.128Z,12.20
2019-02-09T07:26:09.373Z,11.63
2019-02-09T07:26:48.466Z,10.77
2019-02-09T07:27:28.488Z,11.87
2019-02-09T07:28:08.290Z,12.73
2019-02-09T07:28:47.010Z,11.07
2019-02-09T07:29:26.521Z,12.10
2019-02-09T07:30:05.559Z,11.60
2019-02-09T07:30:44.377Z,11.80
2019-02-09T07:31:23.246Z,11.77
2019-02-09T07:32:02.154Z,11.97
2019-02-09T07:32:41.397Z,10.97
2019-02-09T07:33:20.445Z,11.53
2019-02-09T07:33:59.878Z,10.70
2019-02-09T07:34:39.277Z,11.10
2019-02-09T07:35:18.064Z,11.90
2019-02-09T07:35:56.730Z,11.30
2019-02-09T07:36:35.620Z,11.47
2019-02-09T07:37:14.322Z,11.53
2019-02-09T07:37:53.290Z,11.60
2019-02-09T07:38:32.236Z,10.87
2019-02-09T07:39:12.505Z,11.00
2019-02-09T07:39:51.604Z,11.47
2019-02-09T07:40:31.147Z,11.10
2019-02-09T07:41:10.429Z,11.37
2019-02-09T07:41:50.796Z,12.00
2019-02-09T07:42:30.330Z,11.90
2019-02-09T07:43:09.393Z,12.20
2019-02-09T07:43:48.126Z,11.33
2019-02-09T07:44:26.865Z,12.13
2019-02-09T07:45:05.603Z,12.17
2019-02-09T07:45:44.766Z,11.73
2019-02-09T07:46:23.542Z,12.03
2019-02-09T07:47:02.667Z,10.50
2019-02-09T07:47:41.986Z,11.10
2019-02-09T07:48:21.478Z,11.40
2019-02-09T07:49:00.901Z,12.10
2019-02-09T07:49:40.402Z,11.63
2019-02-09T07:50:20.939Z,11.67
2019-02-09T07:51:00.259Z,11.23
2019-02-09T07:51:39.911Z,11.73
2019-02-09T07:52:18.798Z,12.50
2019-02-09T07:52:57.559Z,12.60
2019-02-09T07:53:36.361Z,11.87
2019-02-09T07:54:15.451Z,12.47
2019-02-09T07:54:54.132Z,12.13
2019-02-09T07:55:33.436Z,11.97
2019-02-09T07:56:12.850Z,12.07
2019-02-09T07:56:52.682Z,11.47
2019-02-09T07:57:32.207Z,11.70
2019-02-09T07:58:11.509Z,11.67
2019-02-09T07:58:51.081Z,11.80
2019-02-09T07:59:31.145Z,11.90
2019-02-09T08:00:13.566Z,12.20
2019-02-09T08:00:53.069Z,12.47
2019-02-09T08:01:31.835Z,11.90
2019-02-09T08:02:10.576Z,12.10
2019-02-09T08:02:49.499Z,12.23
2019-02-09T08:03:28.713Z,12.43
2019-02-09T08:04:07.427Z,12.70
2019-02-09T08:04:46.843Z,11.97
2019-02-09T08:05:26.053Z,12.23
2019-02-09T08:06:05.006Z,11.97
2019-02-09T08:06:43.736Z,12.10
2019-02-09T08:07:22.943Z,11.63
2019-02-09T08:08:02.385Z,11.40
2019-02-09T08:08:41.692Z,10.67
2019-02-09T08:09:20.447Z,12.33
2019-02-09T08:09:59.154Z,12.07
2019-02-09T08:10:39.692Z,11.27
2019-02-09T08:11:18.216Z,12.17
2019-02-09T08:11:57.658Z,12.50
2019-02-09T08:12:37.506Z,11.00
2019-02-09T08:13:16.194Z,11.70
2019-02-09T08:13:55.015Z,11.60
2019-02-09T08:14:34.357Z,12.37
2019-02-09T08:15:16.610Z,12.03
2019-02-09T08:15:55.312Z,11.70
2019-02-09T08:16:34.655Z,12.13
2019-02-09T08:17:13.329Z,12.03
2019-02-09T08:17:52.723Z,12.40
2019-02-09T08:18:31.894Z,11.93
2019-02-09T08:19:10.790Z,11.83
2019-02-09T08:19:50.225Z,12.33
2019-02-09T08:20:30.407Z,12.40
2019-02-09T08:21:09.108Z,11.03
2019-02-09T08:21:47.815Z,12.03
2019-02-09T08:22:27.640Z,11.47
2019-02-09T08:23:06.930Z,12.03
2019-02-09T08:23:46.241Z,11.33
2019-02-09T08:24:25.279Z,11.63
2019-02-09T08:25:05.629Z,11.70
2019-02-09T08:25:45.197Z,11.47
2019-02-09T08:26:24.976Z,11.30
2019-02-09T08:27:04.467Z,12.60
2019-02-09T08:27:43.240Z,11.80